Time;durP1;ratioP1;P1;durP2;ratioP2;P2;SDS_P1;SDS_P2;PMS_P1;PMS_P2;Temp;Humidity;BMP_temperature;BMP_pressure;BME280_temperature;BME280_humidity;BME280_pressure;Samples;Min_cycle;Max_cycle;Signal;HPM_P1;HPM_P2
2023/10/13 00:01:11;;;;;;;17.33;10.15;;;;;;;18.52;66.20;99360.66;4466958;32;33545;-89
2023/10/13 00:03:40;;;;;;;17.40;10.38;;;;;;;18.55;65.99;99351.88;4468041;32;34491;-89
2023/10/13 00:06:08;;;;;;;17.15;10.00;;;;;;;18.55;65.84;99365.88;4465354;32;33436;-88
2023/10/13 00:08:36;;;;;;;20.45;10.50;;;;;;;18.42;66.41;99364.34;4453212;32;34765;-89
2023/10/13 00:11:09;;;;;;;15.30;10.18;;;;;;;18.35;66.73;99371.44;4452220;32;33644;-89
2023/10/13 00:13:49;;;;;;;16.17;10.52;;;;;;;18.36;66.67;99370.56;4441693;32;33488;-88
2023/10/13 00:16:21;;;;;;;17.73;10.73;;;;;;;18.22;67.05;99380.38;4465948;32;33588;-88
2023/10/13 00:18:50;;;;;;;17.65;9.98;;;;;;;18.20;67.06;99377.78;4451640;32;33457;-89
2023/10/13 00:21:31;;;;;;;20.20;10.35;;;;;;;18.21;66.89;99370.78;4438081;32;32857;-89
2023/10/13 00:24:06;;;;;;;17.10;10.82;;;;;;;18.22;66.81;99375.13;4451740;32;33528;-87
2023/10/13 00:26:36;;;;;;;18.92;11.05;;;;;;;18.11;67.47;99369.22;4460728;32;34355;-87
2023/10/13 00:31:48;;;;;;;17.27;10.13;;;;;;;18.13;67.75;99368.28;4462102;32;33940;-88
2023/10/13 00:34:24;;;;;;;19.10;10.80;;;;;;;18.12;67.71;99357.81;4437003;32;34857;-88
2023/10/13 00:37:16;;;;;;;19.60;11.55;;;;;;;18.19;67.51;99359.47;4457919;32;33241;-89
2023/10/13 00:40:08;;;;;;;20.20;11.45;;;;;;;18.10;67.98;99357.81;4466671;32;35437;-89
2023/10/13 00:42:50;;;;;;;20.40;10.93;;;;;;;18.19;67.69;99362.09;4465014;32;33751;-87
2023/10/13 00:45:18;;;;;;;23.27;11.65;;;;;;;18.12;67.70;99363.06;4464374;32;34486;-88
2023/10/13 00:47:49;;;;;;;16.62;10.77;;;;;;;18.26;67.44;99365.47;4466394;32;33970;-89
2023/10/13 00:50:17;;;;;;;17.48;10.52;;;;;;;18.15;67.85;99352.53;4453080;32;34397;-89
2023/10/13 00:52:49;;;;;;;18.02;10.38;;;;;;;18.25;67.39;99359.34;4466710;32;33878;-88
2023/10/13 00:55:18;;;;;;;18.77;10.13;;;;;;;18.21;67.52;99363.78;4446599;32;34832;-88
2023/10/13 00:57:47;;;;;;;19.23;9.65;;;;;;;18.12;67.99;99363.94;4444517;32;33206;-89
2023/10/13 01:00:25;;;;;;;15.73;10.95;;;;;;;18.15;67.65;99357.78;4460719;32;33646;-89
2023/10/13 01:02:56;;;;;;;17.23;9.65;;;;;;;18.06;68.42;99357.88;4462111;32;34886;-88
2023/10/13 01:05:25;;;;;;;17.37;10.35;;;;;;;18.09;68.78;99363.97;4465084;32;33909;-89
2023/10/13 01:07:54;;;;;;;17.83;9.90;;;;;;;18.15;68.38;99357.78;4442650;32;32894;-88
2023/10/13 01:10:27;;;;;;;19.45;11.75;;;;;;;18.18;68.39;99348.09;4452451;32;34309;-88
2023/10/13 01:12:55;;;;;;;18.15;10.40;;;;;;;18.26;68.05;99350.63;4451061;32;34163;-88
2023/10/13 01:15:23;;;;;;;22.10;10.00;;;;;;;18.29;67.99;99345.28;4462921;32;34009;-89
2023/10/13 01:17:51;;;;;;;18.95;11.18;;;;;;;18.25;68.04;99340.97;4466041;32;34295;-88
2023/10/13 01:20:25;;;;;;;18.23;10.52;;;;;;;18.22;68.43;99343.66;4458708;32;34527;-88
2023/10/13 01:22:55;;;;;;;19.98;10.60;;;;;;;18.16;69.00;99343.75;4455056;32;33757;-89
2023/10/13 01:25:27;;;;;;;18.05;10.57;;;;;;;18.26;68.61;99341.84;4451581;32;34572;-89
2023/10/13 01:27:57;;;;;;;20.88;11.12;;;;;;;18.31;68.46;99343.53;4460261;32;33833;-89
2023/10/13 01:30:26;;;;;;;18.35;9.52;;;;;;;18.21;68.95;99341.91;4452812;32;32638;-89
2023/10/13 01:32:54;;;;;;;15.75;10.35;;;;;;;18.37;68.06;99348.69;4451518;32;35251;-88
2023/10/13 01:35:36;;;;;;;17.87;10.23;;;;;;;18.26;68.83;99345.37;4458088;32;34091;-89
2023/10/13 01:38:03;;;;;;;17.52;10.13;;;;;;;18.32;68.34;99350.50;4464326;32;33925;-89
2023/10/13 01:40:33;;;;;;;17.67;11.23;;;;;;;18.19;68.92;99354.22;4424919;32;33795;-88
2023/10/13 01:43:04;;;;;;;17.90;10.65;;;;;;;18.20;69.27;99350.69;4455364;32;34950;-87
2023/10/13 01:45:32;;;;;;;18.40;10.60;;;;;;;18.29;68.85;99342.66;4461601;32;34355;-88
2023/10/13 01:48:01;;;;;;;17.23;10.93;;;;;;;18.34;68.59;99347.88;4461577;32;34277;-88
2023/10/13 01:50:29;;;;;;;19.65;10.15;;;;;;;18.34;68.43;99342.62;4453955;32;33814;-88
2023/10/13 01:53:12;;;;;;;19.92;10.77;;;;;;;18.41;68.11;99349.47;4437063;32;34123;-88
2023/10/13 01:55:42;;;;;;;17.73;10.05;;;;;;;18.48;67.61;99354.59;4461868;32;34479;-87
2023/10/13 01:58:15;;;;;;;19.40;10.73;;;;;;;18.53;67.12;99356.31;4447168;32;33015;-88
2023/10/13 02:00:43;;;;;;;17.20;9.93;;;;;;;18.37;67.72;99363.53;4437932;32;33761;-88
2023/10/13 02:03:18;;;;;;;18.27;10.48;;;;;;;18.39;67.33;99361.78;4457710;32;33794;-89
2023/10/13 02:05:47;;;;;;;21.73;10.40;;;;;;;18.29;67.51;99355.78;4458365;32;34537;-88
2023/10/13 02:08:24;;;;;;;19.33;10.30;;;;;;;18.28;67.48;99359.31;4439329;32;33431;-89
2023/10/13 02:10:57;;;;;;;14.77;8.98;;;;;;;18.25;67.64;99348.84;4452904;32;32980;-89
2023/10/13 02:13:25;;;;;;;16.67;10.30;;;;;;;18.46;66.91;99351.16;4437913;32;34811;-88
2023/10/13 02:16:02;;;;;;;16.05;9.40;;;;;;;18.40;66.95;99348.59;4435498;32;33379;-88
2023/10/13 02:18:43;;;;;;;19.10;10.32;;;;;;;18.40;66.76;99353.84;4436242;32;33728;-89
2023/10/13 02:21:13;;;;;;;15.10;9.85;;;;;;;18.41;66.85;99355.63;4465579;32;34566;-89
2023/10/13 02:23:45;;;;;;;18.20;9.55;;;;;;;18.37;67.04;99356.56;4464737;32;34101;-89
2023/10/13 02:26:15;;;;;;;17.98;9.50;;;;;;;18.30;67.46;99354.06;4452484;32;34763;-89
2023/10/13 02:28:44;;;;;;;19.23;9.70;;;;;;;18.20;67.88;99348.06;4457895;32;33385;-89
2023/10/13 02:31:11;;;;;;;16.02;9.70;;;;;;;18.29;67.57;99345.28;4435594;32;33952;-89
2023/10/13 02:33:44;;;;;;;16.12;9.18;;;;;;;18.34;67.16;99351.34;4461434;32;35442;-89
2023/10/13 02:36:12;;;;;;;15.25;9.90;;;;;;;18.26;67.55;99355.84;4457118;32;34426;-88
2023/10/13 02:41:28;;;;;;;15.35;8.98;;;;;;;18.36;67.06;99362.69;4463512;32;32984;-89
2023/10/13 02:43:56;;;;;;;17.62;8.95;;;;;;;18.30;67.38;99356.69;4457657;32;34134;-89
2023/10/13 02:46:29;;;;;;;16.73;8.88;;;;;;;18.37;66.85;99353.94;4464780;32;33780;-89
2023/10/13 02:48:57;;;;;;;15.60;8.75;;;;;;;18.29;67.22;99361.03;4454115;32;34689;-89
2023/10/13 02:51:36;;;;;;;14.65;8.43;;;;;;;18.34;67.01;99363.63;4465462;32;34528;-89
2023/10/13 02:54:11;;;;;;;14.55;8.85;;;;;;;18.32;67.18;99366.25;4454012;32;33616;-89
2023/10/13 02:56:57;;;;;;;18.97;9.00;;;;;;;18.37;66.92;99374.03;4455263;32;33939;-88
2023/10/13 03:02:31;;;;;;;15.20;8.50;;;;;;;18.29;67.47;99381.16;4438770;32;34868;-88
2023/10/13 03:04:59;;;;;;;15.07;10.10;;;;;;;18.38;67.13;99387.16;4459451;32;34154;-89
2023/10/13 03:07:30;;;;;;;15.98;8.88;;;;;;;18.20;67.99;99393.53;4452294;32;34199;-89
2023/10/13 03:10:02;;;;;;;15.25;8.65;;;;;;;18.27;67.72;99393.47;4465969;32;33408;-89
2023/10/13 03:12:33;;;;;;;18.37;10.02;;;;;;;18.40;67.29;99392.38;4463250;32;34243;-89
2023/10/13 03:17:43;;;;;;;17.62;9.82;;;;;;;18.25;67.78;99385.59;4441771;32;33949;-87
2023/10/13 03:20:14;;;;;;;13.50;9.35;;;;;;;18.22;67.82;99380.38;4452579;32;34233;-89
2023/10/13 03:22:45;;;;;;;16.73;9.40;;;;;;;18.28;67.61;99375.06;4439127;32;33896;-88
2023/10/13 03:25:23;;;;;;;16.35;9.45;;;;;;;18.22;68.02;99383.00;4445996;32;33768;-86
2023/10/13 03:30:20;;;;;;;15.85;10.00;;;;;;;18.34;67.57;99367.09;4455683;32;33369;-89
2023/10/13 03:32:53;;;;;;;15.45;9.30;;;;;;;18.32;67.93;99366.25;4443828;32;33918;-89
2023/10/13 03:35:24;;;;;;;15.85;9.45;;;;;;;18.31;68.08;99359.25;4454763;32;34143;-88
2023/10/13 03:37:52;;;;;;;19.67;9.93;;;;;;;18.29;68.25;99357.53;4438918;32;34102;-89
2023/10/13 03:43:05;;;;;;;15.20;9.70;;;;;;;18.36;68.06;99340.81;4465693;32;33816;-88
2023/10/13 03:45:38;;;;;;;17.85;9.35;;;;;;;18.36;68.06;99330.31;4441267;32;34819;-88
2023/10/13 03:48:09;;;;;;;14.18;8.88;;;;;;;18.29;68.30;99331.31;4447977;32;34413;-89
2023/10/13 03:50:47;;;;;;;18.12;9.35;;;;;;;18.33;68.25;99325.97;4438424;32;33369;-89
2023/10/13 03:53:15;;;;;;;18.55;9.30;;;;;;;18.37;68.27;99340.81;4446958;32;33131;-88
2023/10/13 03:55:47;;;;;;;17.90;8.98;;;;;;;18.41;68.31;99341.59;4466977;32;34878;-89
2023/10/13 03:58:17;;;;;;;16.58;9.48;;;;;;;18.43;68.26;99327.56;4449133;32;33554;-89
2023/10/13 04:00:44;;;;;;;12.95;8.45;;;;;;;18.46;68.46;99330.16;4452204;32;34385;-89
2023/10/13 04:03:17;;;;;;;15.13;8.63;;;;;;;18.46;68.59;99330.16;4462675;32;34027;-88
2023/10/13 04:06:00;;;;;;;17.77;9.18;;;;;;;18.53;68.45;99316.94;4452964;32;34922;-90
2023/10/13 04:32:38;;;;;;;18.15;12.05;;;;;;;18.50;68.22;99312.59;4444700;32;33508;-89
2023/10/13 04:38:01;;;;;;;22.27;13.20;;;;;;;18.35;68.50;99323.34;4439132;32;33924;-89
2023/10/13 04:40:35;;;;;;;19.33;14.15;;;;;;;18.37;68.34;99314.56;4442856;32;34037;-88
2023/10/13 04:43:32;;;;;;;23.65;14.98;;;;;;;18.30;68.45;99312.06;4463003;32;33248;-86
2023/10/13 04:45:58;;;;;;;23.58;14.68;;;;;;;18.41;68.05;99313.63;4457115;32;33639;-88
2023/10/13 04:51:34;;;;;;;22.02;14.77;;;;;;;18.33;67.73;99317.25;4452661;32;34925;-88
2023/10/13 04:54:12;;;;;;;25.60;15.50;;;;;;;18.36;67.93;99323.31;4460075;32;34622;-88
2023/10/13 04:59:17;;;;;;;21.62;15.00;;;;;;;18.35;68.28;99332.06;4454478;32;33813;-87
2023/10/13 05:04:38;;;;;;;27.65;18.30;;;;;;;18.29;68.17;99334.78;4453536;32;33168;-88
2023/10/13 06:30:27;;;;;;;24.80;16.65;;;;;;;18.45;69.40;99446.56;4460913;32;33931;-88
2023/10/13 06:32:54;;;;;;;25.33;15.57;;;;;;;18.59;68.89;99453.34;4468959;32;32974;-88
2023/10/13 06:35:24;;;;;;;24.92;15.43;;;;;;;18.50;69.48;99450.88;4468406;32;33835;-87
2023/10/13 06:37:52;;;;;;;21.27;14.43;;;;;;;18.57;69.27;99453.38;4460163;32;35312;-88
2023/10/13 06:40:32;;;;;;;19.83;14.32;;;;;;;18.61;69.19;99455.06;4453259;32;34457;-88
2023/10/13 06:43:16;;;;;;;27.27;15.05;;;;;;;18.63;69.24;99461.16;4441323;32;33535;-88
2023/10/13 06:46:01;;;;;;;21.95;13.77;;;;;;;18.72;68.95;99465.44;4452914;32;33530;-87
2023/10/13 06:48:34;;;;;;;21.80;13.90;;;;;;;18.56;69.82;99458.63;4452716;32;34982;-88
2023/10/13 06:51:12;;;;;;;23.15;13.85;;;;;;;18.60;69.93;99465.56;4452977;32;34562;-86
2023/10/13 06:53:46;;;;;;;22.10;13.00;;;;;;;18.63;69.89;99460.28;4452739;32;33177;-86
2023/10/13 06:56:22;;;;;;;19.83;12.98;;;;;;;18.63;69.87;99471.66;4452881;32;33973;-87
2023/10/13 06:58:50;;;;;;;19.90;12.43;;;;;;;18.77;69.50;99474.09;4439641;32;34135;-86
2023/10/13 07:01:22;;;;;;;19.45;11.90;;;;;;;18.69;69.67;99475.97;4453256;32;33478;-86
2023/10/13 07:03:53;;;;;;;20.55;12.63;;;;;;;18.65;69.90;99476.91;4455684;32;34170;-86
2023/10/13 07:06:21;;;;;;;18.05;12.25;;;;;;;18.76;69.81;99487.28;4468357;32;33648;-86
2023/10/13 07:08:51;;;;;;;20.25;12.52;;;;;;;18.76;69.78;99477.63;4468493;32;33960;-86
2023/10/13 07:11:42;;;;;;;18.23;12.05;;;;;;;18.79;69.62;99482.84;4454881;32;35297;-86
2023/10/13 07:14:10;;;;;;;18.27;11.88;;;;;;;18.87;69.38;99485.34;4453073;32;34377;-86
2023/10/13 07:16:46;;;;;;;20.45;12.90;;;;;;;18.95;69.10;99488.72;4452719;32;34895;-86
2023/10/13 07:19:17;;;;;;;17.45;12.05;;;;;;;18.96;69.28;99480.81;4452778;32;35095;-86
2023/10/13 07:21:47;;;;;;;22.05;13.07;;;;;;;19.04;68.88;99480.69;4452688;32;33592;-85
2023/10/13 07:24:15;;;;;;;18.20;12.50;;;;;;;19.01;69.00;99482.47;4452800;32;32477;-88
2023/10/13 07:26:45;;;;;;;23.45;14.05;;;;;;;19.08;69.09;99484.97;4452925;32;34829;-87
2023/10/13 07:29:14;;;;;;;22.65;14.27;;;;;;;18.84;69.90;99480.13;4452137;32;34246;-87
2023/10/13 07:31:44;;;;;;;21.02;13.95;;;;;;;18.99;69.41;99489.53;4451880;32;34098;-87
2023/10/13 07:34:24;;;;;;;20.80;13.05;;;;;;;18.85;70.27;99489.75;4452770;32;33284;-85
2023/10/13 07:36:55;;;;;;;22.87;14.48;;;;;;;19.00;69.79;99486.88;4452596;32;34721;-85
2023/10/13 07:39:25;;;;;;;20.73;13.90;;;;;;;19.12;69.57;99485.81;4446332;32;33921;-89
2023/10/13 07:42:15;;;;;;;22.80;13.82;;;;;;;19.07;69.80;99490.28;4438813;32;33616;-90
2023/10/13 07:44:45;;;;;;;25.25;13.75;;;;;;;19.18;69.61;99496.22;4441446;32;33087;-90
2023/10/13 07:47:14;;;;;;;19.58;13.68;;;;;;;19.33;68.97;99490.69;4438922;32;33975;-89
2023/10/13 07:49:43;;;;;;;19.08;13.50;;;;;;;19.34;69.13;99486.31;4452674;32;34154;-90
2023/10/13 07:52:23;;;;;;;21.92;12.95;;;;;;;19.53;68.62;99477.19;4452548;32;34267;-90
2023/10/13 07:55:03;;;;;;;18.23;12.05;;;;;;;19.54;68.70;99484.16;4440564;32;32958;-89
2023/10/13 07:57:30;;;;;;;18.92;11.75;;;;;;;19.49;69.23;99485.16;4437294;32;32556;-87
2023/10/13 08:00:25;;;;;;;20.98;12.05;;;;;;;19.45;69.33;99484.34;4452141;32;35741;-88
2023/10/13 08:06:04;;;;;;;;;;;;;;;19.64;68.84;99484.91;4438037;32;32920;-89
2023/10/13 08:08:38;;;;;;;18.37;11.02;;;;;;;19.89;68.21;99477.41;4458642;32;34026;-90
2023/10/13 08:11:30;;;;;;;21.17;11.25;;;;;;;19.65;69.03;99470.84;4439632;32;34310;-88
2023/10/13 08:14:11;;;;;;;17.52;11.12;;;;;;;19.67;69.17;99476.97;4454519;32;34485;-88
2023/10/13 08:17:00;;;;;;;16.92;9.88;;;;;;;19.81;68.88;99480.19;4467575;32;34394;-86
2023/10/13 08:19:39;;;;;;;17.60;9.75;;;;;;;19.72;69.54;99477.72;4469135;32;33918;-86
2023/10/13 08:35:09;;;;;;;15.43;9.30;;;;;;;20.21;68.22;99476.72;4459321;32;34100;-88
2023/10/13 08:40:23;;;;;;;17.02;9.30;;;;;;;20.50;66.48;99475.28;4449352;32;34660;-88
2023/10/13 08:53:33;;;;;;;28.70;14.85;;;;;;;20.83;64.01;99492.91;4453278;32;33913;-88
2023/10/13 09:09:42;;;;;;;22.85;13.13;;;;;;;21.26;62.31;99497.13;4439678;32;33586;-88
2023/10/13 09:12:20;;;;;;;24.77;14.70;;;;;;;21.45;62.65;99487.00;4452196;32;33944;-89
2023/10/13 09:15:05;;;;;;;23.85;15.30;;;;;;;21.55;62.44;99482.34;4437927;32;34646;-87
2023/10/13 09:17:54;;;;;;;28.70;16.37;;;;;;;21.83;61.71;99475.41;4438563;32;34067;-88
2023/10/13 09:20:42;;;;;;;29.05;16.60;;;;;;;21.61;61.11;99471.62;4452247;32;33147;-89
2023/10/13 09:23:19;;;;;;;27.17;16.67;;;;;;;21.80;61.06;99472.84;4439520;32;34748;-88
2023/10/13 09:26:08;;;;;;;30.62;14.95;;;;;;;21.85;60.10;99484.13;4452560;32;34424;-88
2023/10/13 09:28:37;;;;;;;29.00;15.38;;;;;;;21.77;60.44;99479.97;4440463;32;33598;-88
2023/10/13 09:31:09;;;;;;;23.90;15.93;;;;;;;21.94;60.96;99477.75;4452122;32;34038;-88
2023/10/13 09:33:39;;;;;;;27.30;14.98;;;;;;;21.92;59.95;99478.69;4452070;32;33877;-88
2023/10/13 09:36:07;;;;;;;26.95;14.45;;;;;;;21.91;59.82;99476.97;4451984;32;34002;-88
2023/10/13 09:38:36;;;;;;;29.40;15.35;;;;;;;21.86;60.32;99482.37;4437920;32;33685;-88
2023/10/13 09:41:17;;;;;;;26.08;14.75;;;;;;;21.99;60.48;99488.16;4451845;32;33152;-88
2023/10/13 09:43:46;;;;;;;25.95;15.27;;;;;;;22.12;59.59;99489.53;4439533;32;33844;-88
2023/10/13 09:46:19;;;;;;;27.95;16.45;;;;;;;22.50;58.39;99482.25;4437235;32;33468;-89
2023/10/13 09:48:52;;;;;;;27.02;15.82;;;;;;;22.29;59.09;99482.00;4451677;32;33490;-88
2023/10/13 09:51:21;;;;;;;28.23;17.65;;;;;;;22.46;58.35;99478.84;4438308;32;34429;-88
2023/10/13 09:54:01;;;;;;;25.83;16.85;;;;;;;22.39;58.65;99484.38;4436227;32;33960;-88
2023/10/13 09:56:51;;;;;;;25.85;16.48;;;;;;;22.61;58.43;99477.50;4437323;32;34633;-88
2023/10/13 09:59:34;;;;;;;25.37;16.58;;;;;;;22.54;58.58;99475.97;4439362;32;33931;-88
2023/10/13 10:02:18;;;;;;;26.10;15.77;;;;;;;22.50;58.14;99484.91;4451392;32;33320;-88
2023/10/13 10:05:12;;;;;;;30.48;16.08;;;;;;;22.36;58.80;99473.91;4438984;32;34617;-89
2023/10/13 10:07:40;;;;;;;25.83;16.75;;;;;;;22.62;58.08;99471.34;4439584;32;33734;-88
2023/10/13 10:10:08;;;;;;;25.17;16.65;;;;;;;22.56;58.44;99466.22;4451729;32;33874;-88
2023/10/13 10:12:50;;;;;;;31.27;17.02;;;;;;;22.57;58.22;99463.53;4451325;32;33358;-87
2023/10/13 10:15:33;;;;;;;28.27;16.80;;;;;;;22.87;58.11;99462.59;4437349;32;33628;-88
2023/10/13 10:18:03;;;;;;;35.83;17.45;;;;;;;22.76;58.65;99469.09;4438162;32;33779;-89
2023/10/13 10:20:42;;;;;;;25.55;17.48;;;;;;;22.91;58.08;99466.87;4451587;32;33804;-88
2023/10/13 10:23:21;;;;;;;32.33;17.45;;;;;;;22.65;58.22;99458.00;4437927;32;33421;-88
2023/10/13 10:25:51;;;;;;;27.65;18.02;;;;;;;22.91;58.25;99456.28;4438379;32;33371;-89
2023/10/13 10:28:19;;;;;;;28.45;16.70;;;;;;;23.28;57.25;99451.53;4451093;32;33850;-88
2023/10/13 10:30:47;;;;;;;27.50;17.08;;;;;;;23.18;57.67;99449.25;4451216;32;33639;-88
2023/10/13 10:33:18;;;;;;;33.78;15.82;;;;;;;23.52;55.86;99451.56;4451196;32;34034;-88
2023/10/13 10:35:46;;;;;;;28.42;15.77;;;;;;;23.43;56.60;99442.19;4450813;32;33818;-88
2023/10/13 10:38:23;;;;;;;22.87;14.45;;;;;;;23.78;56.17;99432.13;4436748;32;34908;-89
2023/10/13 10:40:57;;;;;;;20.98;13.80;;;;;;;23.83;56.96;99437.25;4450913;32;34790;-89
2023/10/13 10:43:28;;;;;;;23.35;13.05;;;;;;;23.95;55.88;99431.53;4450955;32;33926;-86
2023/10/13 10:46:00;;;;;;;21.40;13.43;;;;;;;24.06;54.67;99423.19;4437436;32;33726;-86
2023/10/13 10:48:38;;;;;;;23.87;12.18;;;;;;;24.18;55.33;99418.25;4450654;32;33630;-86
2023/10/13 10:51:14;;;;;;;27.98;13.02;;;;;;;24.20;55.87;99416.41;4437933;32;33495;-86
2023/10/13 10:53:45;;;;;;;22.87;13.68;;;;;;;24.39;54.99;99410.41;4437539;32;33268;-86
2023/10/13 10:56:20;;;;;;;25.25;13.73;;;;;;;24.45;53.41;99415.47;4450756;32;33944;-85
2023/10/13 10:58:48;;;;;;;25.10;14.95;;;;;;;24.53;54.68;99410.72;4437323;32;34889;-85
2023/10/13 11:01:20;;;;;;;28.23;13.40;;;;;;;24.98;52.87;99402.66;4436509;32;34686;-86
2023/10/13 11:03:59;;;;;;;26.73;14.63;;;;;;;24.87;53.54;99415.50;4450583;32;34450;-86
2023/10/13 11:06:28;;;;;;;23.02;13.50;;;;;;;24.98;52.89;99413.28;4450683;32;34609;-85
2023/10/13 11:09:18;;;;;;;21.90;13.20;;;;;;;24.86;52.83;99404.97;4438660;32;33759;-86
2023/10/13 11:11:52;;;;;;;25.80;13.65;;;;;;;24.78;53.72;99409.75;4452395;32;33291;-86
2023/10/13 11:14:25;;;;;;;23.12;12.45;;;;;;;24.95;54.07;99407.22;4439454;32;33503;-88
2023/10/13 11:16:54;;;;;;;25.98;13.55;;;;;;;24.82;53.73;99411.34;4438717;32;34614;-87
2023/10/13 11:19:43;;;;;;;34.75;16.23;;;;;;;24.97;53.45;99400.94;4438575;32;33867;-88
2023/10/13 11:22:29;;;;;;;24.42;12.50;;;;;;;24.81;51.92;99398.97;4438901;32;33511;-88
2023/10/13 11:24:59;;;;;;;24.33;14.27;;;;;;;25.11;52.38;99386.25;4452825;32;32780;-89
2023/10/13 11:33:23;;;;;;;24.33;12.18;;;;;;;25.50;52.06;99385.44;4434731;32;33595;-87
2023/10/13 11:38:26;;;;;;;24.17;12.65;;;;;;;25.60;50.49;99382.28;4439069;32;34769;-88
2023/10/13 11:48:38;;;;;;;17.40;9.82;;;;;;;26.03;44.35;99376.84;4452488;32;33538;-88
2023/10/13 11:51:16;;;;;;;20.70;8.90;;;;;;;25.67;46.60;99370.44;4452329;32;33733;-87
2023/10/13 11:53:45;;;;;;;16.67;8.23;;;;;;;26.08;45.81;99374.81;4452462;32;33811;-88
2023/10/13 11:56:12;;;;;;;19.75;8.80;;;;;;;26.16;44.36;99373.50;4438621;32;33848;-88
2023/10/13 11:58:40;;;;;;;16.20;7.53;;;;;;;26.32;45.09;99368.31;4452663;32;33311;-88
2023/10/13 12:06:46;;;;;;;20.92;8.15;;;;;;;26.64;42.69;99369.41;4440572;32;33487;-87
2023/10/13 12:09:41;;;;;;;21.50;8.07;;;;;;;26.61;44.15;99364.25;4452303;32;33608;-87
2023/10/13 12:12:08;;;;;;;14.95;7.45;;;;;;;26.62;42.84;99347.34;4452661;32;35440;-86
2023/10/13 12:14:52;;;;;;;12.02;6.50;;;;;;;26.64;42.47;99348.16;4452515;32;33615;-87
2023/10/13 12:17:25;;;;;;;12.82;5.60;;;;;;;26.76;44.68;99354.66;4452491;32;33585;-88
2023/10/13 12:19:57;;;;;;;16.58;6.30;;;;;;;26.96;39.50;99350.97;4451754;32;34709;-87
2023/10/13 12:22:28;;;;;;;17.55;6.20;;;;;;;27.01;39.75;99356.94;4458489;32;33098;-87
2023/10/13 12:24:56;;;;;;;16.08;6.12;;;;;;;26.83;40.82;99358.72;4453893;32;34259;-88
2023/10/13 12:27:26;;;;;;;14.10;5.95;;;;;;;27.01;38.88;99350.72;4467510;32;33919;-88
2023/10/13 12:29:56;;;;;;;19.77;6.37;;;;;;;26.91;39.55;99340.56;4467893;32;34414;-88
2023/10/13 12:32:25;;;;;;;16.33;5.47;;;;;;;26.86;40.47;99347.94;4468176;32;34089;-87
2023/10/13 12:49:04;;;;;;;14.68;5.35;;;;;;;26.68;41.93;99332.91;4467342;32;33097;-87
2023/10/13 12:56:47;;;;;;;20.15;5.90;;;;;;;26.31;42.65;99328.53;4455475;32;33057;-88
2023/10/13 12:59:17;;;;;;;16.58;5.50;;;;;;;26.13;42.76;99323.16;4467641;32;34344;-87
2023/10/13 13:01:44;;;;;;;15.35;6.00;;;;;;;26.12;43.39;99331.22;4467910;32;33666;-87
2023/10/13 13:04:19;;;;;;;15.32;5.53;;;;;;;26.28;43.04;99326.88;4467401;32;34158;-88
2023/10/13 13:06:53;;;;;;;14.38;5.43;;;;;;;26.03;44.30;99324.56;4467586;32;34442;-87
2023/10/13 13:09:26;;;;;;;13.25;5.47;;;;;;;25.84;46.07;99319.25;4467455;32;35261;-88
2023/10/13 13:11:57;;;;;;;16.10;5.60;;;;;;;25.71;45.29;99316.25;4467668;32;34526;-88
2023/10/13 13:14:28;;;;;;;12.23;5.07;;;;;;;25.82;45.44;99314.94;4453868;32;34669;-87
2023/10/13 13:17:04;;;;;;;14.20;5.65;;;;;;;25.76;45.67;99315.19;4453608;32;33992;-87
2023/10/13 13:19:38;;;;;;;;;;;;;;;25.62;45.71;99310.53;4454791;32;33487;-89
2023/10/13 13:22:17;;;;;;;18.25;5.60;;;;;;;25.83;42.11;99312.19;4453691;32;35116;-88
2023/10/13 13:24:46;;;;;;;19.77;6.18;;;;;;;25.69;43.63;99309.31;4438528;32;33854;-86
2023/10/13 13:27:16;;;;;;;12.32;5.55;;;;;;;25.84;42.98;99305.13;4461063;32;34180;-85
2023/10/13 13:29:44;;;;;;;12.55;5.50;;;;;;;25.56;45.11;99303.72;4451578;32;34360;-87
2023/10/13 13:32:24;;;;;;;17.45;6.22;;;;;;;25.31;46.89;99308.44;4453054;32;34691;-87
2023/10/13 13:35:04;;;;;;;15.82;5.43;;;;;;;25.56;44.69;99311.66;4466838;32;34522;-86
2023/10/13 13:37:32;;;;;;;15.05;5.80;;;;;;;25.62;41.46;99313.19;4428493;32;33575;-85
2023/10/13 13:40:15;;;;;;;14.77;6.03;;;;;;;25.45;46.06;99312.16;4446543;32;33582;-88
2023/10/13 13:42:43;;;;;;;15.85;5.37;;;;;;;25.50;44.59;99308.47;4451894;32;33851;-86
2023/10/13 13:45:21;;;;;;;15.38;5.95;;;;;;;25.26;46.44;99313.06;4462442;32;35433;-87
2023/10/13 13:47:55;;;;;;;14.07;5.93;;;;;;;25.26;44.00;99310.41;4453942;32;33970;-86
2023/10/13 13:50:29;;;;;;;14.35;5.82;;;;;;;25.50;43.47;99303.16;4467245;32;33229;-87
2023/10/13 13:52:57;;;;;;;11.90;4.85;;;;;;;25.19;43.73;99300.09;4440691;32;33924;-87
2023/10/13 13:55:28;;;;;;;15.07;5.75;;;;;;;25.19;45.93;99305.41;4467159;32;34299;-90
2023/10/13 13:57:57;;;;;;;15.73;5.57;;;;;;;25.09;45.03;99300.53;4438250;32;34565;-88
2023/10/13 14:00:48;;;;;;;13.52;5.95;;;;;;;25.11;46.42;99299.56;4437949;32;33559;-86
2023/10/13 14:03:30;;;;;;;15.05;5.68;;;;;;;25.19;45.96;99300.09;4437143;32;34819;-85
2023/10/13 14:05:59;;;;;;;15.13;5.70;;;;;;;25.02;44.90;99297.28;4451594;32;34020;-89
2023/10/13 14:08:27;;;;;;;10.82;5.22;;;;;;;24.90;46.58;99295.19;4451416;32;34003;-86
2023/10/13 14:13:49;;;;;;;13.02;6.03;;;;;;;24.91;47.65;99294.25;4451167;32;34628;-90
2023/10/13 14:16:20;;;;;;;12.27;5.15;;;;;;;24.89;46.91;99288.12;4465187;32;34539;-88
2023/10/13 14:18:50;;;;;;;11.90;5.15;;;;;;;24.53;48.34;99288.81;4464934;32;34047;-86
2023/10/13 14:21:18;;;;;;;14.45;5.90;;;;;;;24.57;48.29;99290.41;4445243;32;33474;-84
2023/10/13 14:23:47;;;;;;;14.18;5.70;;;;;;;24.54;48.00;99287.00;4451255;32;35054;-86
2023/10/13 14:26:21;;;;;;;15.38;5.05;;;;;;;24.35;48.69;99285.09;4451401;32;33969;-86
2023/10/13 14:29:01;;;;;;;16.20;5.25;;;;;;;24.39;47.00;99285.88;4460888;32;34202;-87
2023/10/13 14:31:31;;;;;;;12.90;5.30;;;;;;;24.30;48.28;99276.50;4463750;32;33384;-86
2023/10/13 14:33:58;;;;;;;12.95;5.15;;;;;;;24.17;48.57;99276.16;4454994;32;34101;-88
2023/10/13 14:36:28;;;;;;;17.83;4.93;;;;;;;24.18;48.69;99275.22;4451960;32;35034;-86
2023/10/13 14:38:57;;;;;;;15.65;5.95;;;;;;;24.12;48.65;99264.84;4455750;32;35439;-87
2023/10/13 14:41:24;;;;;;;12.32;5.30;;;;;;;24.01;49.22;99275.03;4453080;32;33244;-87
2023/10/13 14:43:51;;;;;;;13.10;5.12;;;;;;;23.91;49.41;99273.69;4452873;32;33841;-91
2023/10/13 14:46:23;;;;;;;13.80;6.20;;;;;;;23.97;49.19;99273.44;4453792;32;33799;-89
2023/10/13 14:48:54;;;;;;;17.02;5.20;;;;;;;24.01;49.41;99264.44;4439221;32;33761;-88
2023/10/13 14:51:21;;;;;;;12.35;4.78;;;;;;;23.99;49.66;99264.50;4453174;32;33010;-91
2023/10/13 14:53:49;;;;;;;11.57;5.10;;;;;;;23.89;49.84;99265.78;4452970;32;33503;-89
2023/10/13 14:56:25;;;;;;;15.27;5.32;;;;;;;23.89;50.38;99264.94;4453646;32;35085;-89
2023/10/13 14:58:53;;;;;;;15.00;4.82;;;;;;;23.83;50.54;99265.16;4453719;32;33188;-87
2023/10/13 15:01:24;;;;;;;15.48;5.70;;;;;;;23.79;50.45;99261.81;4453963;32;33475;-88
2023/10/13 15:03:56;;;;;;;14.27;5.10;;;;;;;23.76;50.47;99265.44;4468597;32;33833;-92
2023/10/13 15:06:28;;;;;;;13.40;5.45;;;;;;;23.67;50.74;99265.78;4455004;32;34032;-88
2023/10/13 15:08:58;;;;;;;16.98;5.47;;;;;;;23.58;50.82;99262.59;4454727;32;33983;-88
2023/10/13 15:11:27;;;;;;;11.00;5.28;;;;;;;23.54;50.88;99264.50;4439333;32;33647;-89
2023/10/13 15:13:55;;;;;;;13.23;5.72;;;;;;;23.57;50.74;99268.84;4439485;32;33730;-88
2023/10/13 15:16:26;;;;;;;14.13;5.53;;;;;;;23.49;50.65;99261.19;4439704;32;33695;-95
2023/10/13 15:18:55;;;;;;;11.40;5.20;;;;;;;23.54;49.98;99269.81;4446117;32;33707;-89
2023/10/13 15:21:59;;;;;;;13.82;4.75;;;;;;;23.50;49.34;99262.91;4439499;32;34342;-89
2023/10/13 15:24:21;;;;;;;16.15;5.15;;;;;;;23.50;49.15;99266.41;4449799;32;33271;-89
2023/10/13 15:27:01;;;;;;;12.32;5.12;;;;;;;23.47;48.73;99266.53;4453055;32;33313;-89
2023/10/13 15:29:35;;;;;;;16.23;5.32;;;;;;;23.37;48.82;99270.44;4453600;32;33311;-88
2023/10/13 15:32:41;;;;;;;13.27;5.35;;;;;;;23.35;48.74;99263.50;4455441;32;33200;-89